Time;durP1;ratioP1;P1;durP2;ratioP2;P2;SDS_P1;SDS_P2;PMS_P1;PMS_P2;Temp;Humidity;BMP_temperature;BMP_pressure;BME280_temperature;BME280_humidity;BME280_pressure;Samples;Min_cycle;Max_cycle;Signal;HPM_P1;HPM_P2
2022/11/12 00:00:20;;;;;;;32.58;15.43;;;7.10;99.90;;;;;;5102138;28;20095;-78
2022/11/12 00:02:45;;;;;;;36.25;15.52;;;7.00;99.90;;;;;;5103621;28;20028;-77
2022/11/12 00:05:11;;;;;;;33.08;15.23;;;6.90;99.90;;;;;;5100112;28;20012;-77
2022/11/12 00:07:37;;;;;;;31.38;14.82;;;7.00;99.90;;;;;;5104421;28;20058;-77
2022/11/12 00:10:03;;;;;;;32.40;15.25;;;7.00;99.90;;;;;;5102043;28;20096;-77
2022/11/12 00:12:29;;;;;;;34.33;14.63;;;7.00;99.90;;;;;;5102435;28;20020;-77
2022/11/12 00:14:54;;;;;;;33.80;15.25;;;6.90;99.90;;;;;;5102056;28;20035;-77
2022/11/12 00:17:20;;;;;;;31.33;15.20;;;6.90;99.90;;;;;;5103172;28;20069;-77
2022/11/12 00:19:48;;;;;;;32.95;14.93;;;6.80;99.90;;;;;;5101742;28;20079;-78
2022/11/12 00:22:13;;;;;;;29.70;14.07;;;6.90;99.90;;;;;;5101477;28;20036;-76
2022/11/12 00:24:39;;;;;;;29.35;14.90;;;6.90;99.90;;;;;;5101486;28;20035;-77
2022/11/12 00:27:05;;;;;;;38.53;15.43;;;6.90;99.90;;;;;;5100882;28;20024;-77
2022/11/12 00:29:37;;;;;;;31.95;15.15;;;6.80;99.90;;;;;;5100120;28;20103;-78
2022/11/12 00:32:05;;;;;;;30.50;16.15;;;6.80;99.90;;;;;;5101521;28;20023;-77
2022/11/12 00:34:30;;;;;;;35.92;15.68;;;6.60;99.90;;;;;;5100414;28;20024;-76
2022/11/12 00:36:56;;;;;;;26.58;14.80;;;6.70;99.90;;;;;;5100584;28;20034;-76
2022/11/12 00:39:21;;;;;;;33.05;16.48;;;6.70;99.90;;;;;;5100297;28;20032;-76
2022/11/12 00:41:47;;;;;;;26.13;14.40;;;6.80;99.90;;;;;;5100795;28;20043;-77
2022/11/12 00:44:13;;;;;;;31.00;14.65;;;6.60;99.90;;;;;;5100734;28;20035;-77
2022/11/12 00:46:39;;;;;;;29.42;14.00;;;6.60;99.90;;;;;;5101581;28;20047;-77
2022/11/12 00:49:04;;;;;;;34.53;14.68;;;6.70;99.90;;;;;;5100514;28;20424;-77
2022/11/12 00:51:30;;;;;;;30.25;14.73;;;6.60;99.90;;;;;;5100185;28;20039;-77
2022/11/12 00:53:58;;;;;;;30.55;14.68;;;6.60;99.90;;;;;;5101124;28;20068;-78
2022/11/12 00:56:24;;;;;;;25.55;13.13;;;6.50;99.90;;;;;;5100371;28;20103;-78
2022/11/12 00:58:50;;;;;;;28.10;14.65;;;6.40;99.90;;;;;;5100194;28;20044;-76
2022/11/12 01:01:16;;;;;;;31.48;14.40;;;6.40;99.90;;;;;;5100941;28;20107;-78
2022/11/12 01:03:42;;;;;;;29.30;13.85;;;6.40;99.90;;;;;;5099799;28;20510;-78
2022/11/12 01:06:20;;;;;;;32.13;14.55;;;6.30;99.90;;;;;;5099982;28;20034;-79
2022/11/12 01:08:49;;;;;;;29.10;13.35;;;6.30;99.90;;;;;;5101359;28;20050;-77
2022/11/12 01:11:27;;;;;;;26.30;13.32;;;6.40;99.90;;;;;;5100241;28;20024;-76
2022/11/12 01:13:58;;;;;;;26.85;14.10;;;6.30;99.90;;;;;;5099066;28;20020;-77
2022/11/12 01:16:27;;;;;;;25.27;13.20;;;6.30;99.90;;;;;;5099809;28;20059;-78
2022/11/12 01:18:54;;;;;;;33.05;14.63;;;6.30;99.90;;;;;;5099612;28;20020;-77
2022/11/12 01:21:21;;;;;;;27.58;13.88;;;6.20;99.90;;;;;;5098368;28;20083;-75
2022/11/12 01:23:47;;;;;;;35.03;14.98;;;6.20;99.90;;;;;;5101118;28;20028;-77
2022/11/12 01:26:15;;;;;;;28.90;13.50;;;6.20;99.90;;;;;;5100031;28;20024;-76
2022/11/12 01:28:42;;;;;;;24.35;14.02;;;6.20;99.90;;;;;;5099935;28;20036;-77
2022/11/12 01:31:13;;;;;;;28.80;13.20;;;6.20;99.90;;;;;;5100996;28;20024;-77
2022/11/12 01:33:41;;;;;;;29.55;14.55;;;6.10;99.90;;;;;;5099338;28;20807;-76
2022/11/12 01:36:07;;;;;;;41.20;14.25;;;6.10;99.90;;;;;;5098854;28;20029;-77
2022/11/12 01:38:34;;;;;;;32.20;13.82;;;6.10;99.90;;;;;;5100840;28;20813;-77
2022/11/12 01:41:00;;;;;;;27.25;12.82;;;6.10;99.90;;;;;;5099935;28;20067;-77
2022/11/12 01:43:25;;;;;;;27.38;13.40;;;6.10;99.90;;;;;;5100756;28;20032;-79
2022/11/12 01:45:52;;;;;;;25.55;13.63;;;6.10;99.90;;;;;;5101124;28;20070;-77
2022/11/12 01:48:25;;;;;;;26.27;13.20;;;6.10;99.90;;;;;;5099378;28;20044;-77
2022/11/12 01:50:52;;;;;;;28.58;12.93;;;6.00;99.90;;;;;;5099694;28;20024;-77
2022/11/12 01:53:24;;;;;;;24.02;12.07;;;6.10;99.90;;;;;;5102583;28;20048;-78
2022/11/12 01:55:51;;;;;;;26.13;13.25;;;6.20;99.90;;;;;;5100897;28;20060;-77
2022/11/12 01:58:21;;;;;;;23.65;12.18;;;6.10;99.90;;;;;;5102421;28;20131;-77
2022/11/12 02:00:47;;;;;;;29.85;13.15;;;6.20;99.90;;;;;;5099973;28;20036;-77
2022/11/12 02:03:22;;;;;;;27.00;13.35;;;6.40;99.90;;;;;;5100034;28;20020;-79
2022/11/12 02:06:04;;;;;;;24.17;11.73;;;6.30;99.90;;;;;;5100238;28;20038;-78
2022/11/12 02:08:31;;;;;;;27.23;12.88;;;6.20;99.90;;;;;;5100926;28;20055;-77
2022/11/12 02:11:12;;;;;;;23.17;12.63;;;6.30;99.90;;;;;;5101705;28;20017;-77
2022/11/12 02:13:57;;;;;;;26.40;11.25;;;6.20;99.90;;;;;;5101323;28;20054;-78
2022/11/12 02:16:27;;;;;;;20.90;11.40;;;6.10;99.90;;;;;;5099438;28;20024;-77
2022/11/12 02:18:53;;;;;;;23.50;11.15;;;6.00;99.90;;;;;;5100236;28;20120;-75
2022/11/12 02:21:20;;;;;;;24.10;12.02;;;6.10;99.90;;;;;;5101578;28;20213;-75
2022/11/12 02:23:46;;;;;;;25.77;12.13;;;6.10;99.90;;;;;;5101594;28;20054;-76
2022/11/12 02:26:12;;;;;;;25.67;12.20;;;6.20;99.90;;;;;;5099834;28;20069;-73
2022/11/12 02:28:37;;;;;;;22.90;12.35;;;6.00;99.90;;;;;;5103843;28;20024;-77
2022/11/12 02:31:03;;;;;;;25.90;12.48;;;6.20;99.90;;;;;;5103718;28;20551;-75
2022/11/12 02:33:29;;;;;;;27.05;11.30;;;6.10;99.90;;;;;;5104687;28;20364;-77
2022/11/12 02:35:54;;;;;;;20.52;11.02;;;6.10;99.90;;;;;;5102725;28;20043;-77
2022/11/12 02:38:20;;;;;;;23.45;11.32;;;6.10;99.90;;;;;;5103844;28;20024;-77
2022/11/12 02:40:46;;;;;;;18.15;10.05;;;6.10;99.90;;;;;;5104987;28;20028;-74
2022/11/12 02:43:11;;;;;;;22.85;10.43;;;6.10;99.90;;;;;;5104241;28;20028;-76
2022/11/12 02:45:37;;;;;;;20.15;10.50;;;6.10;99.90;;;;;;5103745;28;20073;-76
2022/11/12 02:48:02;;;;;;;21.67;10.73;;;6.10;99.90;;;;;;5105090;28;20036;-77
2022/11/12 02:50:28;;;;;;;20.08;10.07;;;6.00;99.90;;;;;;5104610;28;20035;-75
2022/11/12 02:52:54;;;;;;;26.50;11.15;;;6.00;99.90;;;;;;5103707;28;20024;-75
2022/11/12 02:55:19;;;;;;;24.42;10.43;;;5.90;99.90;;;;;;5103816;28;20036;-76
2022/11/12 02:57:45;;;;;;;19.50;10.15;;;5.90;99.90;;;;;;5103434;28;20032;-76
2022/11/12 03:00:12;;;;;;;22.80;11.15;;;5.90;99.90;;;;;;5104605;28;20036;-77
2022/11/12 03:02:57;;;;;;;30.90;10.73;;;5.80;99.90;;;;;;5103986;28;20026;-77
2022/11/12 03:05:24;;;;;;;24.05;10.63;;;5.80;99.90;;;;;;5100751;28;20040;-77
2022/11/12 03:07:49;;;;;;;24.92;10.98;;;5.80;99.90;;;;;;5104029;28;20020;-75
2022/11/12 03:10:15;;;;;;;18.80;9.65;;;5.80;99.90;;;;;;5103423;28;20024;-76
2022/11/12 03:12:47;;;;;;;21.73;10.75;;;5.70;99.90;;;;;;5103449;28;20028;-76
2022/11/12 03:15:12;;;;;;;18.02;9.38;;;5.70;99.90;;;;;;5105001;28;20030;-76
2022/11/12 03:17:38;;;;;;;22.02;10.35;;;5.70;99.90;;;;;;5101343;28;20095;-75
2022/11/12 03:20:04;;;;;;;20.15;10.13;;;5.60;99.90;;;;;;5102210;28;20054;-76
2022/11/12 03:22:30;;;;;;;17.88;9.48;;;5.70;99.90;;;;;;5104465;28;20030;-76
2022/11/12 03:24:55;;;;;;;19.17;9.93;;;5.60;99.90;;;;;;5102822;28;20055;-78
2022/11/12 03:27:21;;;;;;;19.77;10.18;;;5.60;99.90;;;;;;5104462;28;20523;-77
2022/11/12 03:29:46;;;;;;;17.30;9.88;;;5.70;99.90;;;;;;5103146;28;20036;-76
2022/11/12 03:32:12;;;;;;;17.63;9.57;;;5.60;99.90;;;;;;5102681;28;20031;-78
2022/11/12 03:34:37;;;;;;;19.08;9.90;;;5.70;99.90;;;;;;5102815;28;20502;-75
2022/11/12 03:37:03;;;;;;;19.85;9.88;;;5.60;99.90;;;;;;5104211;28;20038;-75
2022/11/12 03:39:29;;;;;;;18.55;9.75;;;5.60;99.90;;;;;;5102646;28;20028;-76
2022/11/12 03:42:01;;;;;;;22.63;10.70;;;5.50;99.90;;;;;;5104010;28;20063;-75
2022/11/12 03:44:26;;;;;;;24.38;10.68;;;5.50;99.90;;;;;;5102259;28;20107;-75
2022/11/12 03:46:52;;;;;;;26.70;9.77;;;5.50;99.90;;;;;;5102622;28;20063;-76
2022/11/12 03:49:18;;;;;;;28.85;11.48;;;5.50;99.90;;;;;;5104074;28;20024;-78
2022/11/12 03:51:43;;;;;;;21.40;10.95;;;5.60;99.90;;;;;;5103986;28;20016;-77
2022/11/12 03:54:09;;;;;;;20.35;10.57;;;5.50;99.90;;;;;;5102479;28;20027;-77
2022/11/12 03:56:34;;;;;;;18.52;10.05;;;5.50;99.90;;;;;;5102561;28;20100;-76
2022/11/12 03:59:00;;;;;;;23.38;9.98;;;5.50;99.90;;;;;;5103439;28;20043;-76
2022/11/12 04:01:26;;;;;;;21.60;9.85;;;5.50;99.90;;;;;;5101859;28;20048;-76
2022/11/12 04:03:51;;;;;;;21.80;10.05;;;5.50;99.90;;;;;;5102045;28;20020;-76
2022/11/12 04:09:01;;;;;;;23.73;10.52;;;5.50;99.90;;;;;;5103418;28;20034;-77
2022/11/12 04:11:27;;;;;;;22.73;11.13;;;5.40;99.90;;;;;;5102401;28;20032;-76
2022/11/12 04:13:53;;;;;;;20.88;9.95;;;5.40;99.90;;;;;;5101385;28;20049;-75
2022/11/12 04:22:00;;;;;;;21.95;10.73;;;5.30;99.90;;;;;;5102770;28;20185;-78
2022/11/12 04:27:17;;;;;;;23.17;10.27;;;5.40;99.90;;;;;;5103848;28;19930;-77
2022/11/12 04:32:30;;;;;;;19.23;9.68;;;5.30;99.90;;;;;;5102728;28;20039;-75
2022/11/12 04:34:57;;;;;;;26.70;10.70;;;5.30;99.90;;;;;;5101622;28;20154;-77
2022/11/12 04:37:24;;;;;;;22.80;10.82;;;5.20;99.90;;;;;;5101687;28;20032;-76
2022/11/12 04:39:51;;;;;;;25.58;11.52;;;5.20;99.90;;;;;;5103003;28;20028;-78
2022/11/12 04:45:07;;;;;;;23.27;12.20;;;5.10;99.90;;;;;;5102647;28;20039;-77
2022/11/12 04:47:35;;;;;;;24.40;11.23;;;5.10;99.90;;;;;;5101233;28;20024;-76
2022/11/12 04:50:03;;;;;;;25.88;11.00;;;5.10;99.90;;;;;;5102088;28;20100;-74
2022/11/12 04:52:30;;;;;;;21.40;11.15;;;5.10;99.90;;;;;;5102343;28;20020;-77
2022/11/12 04:54:55;;;;;;;21.77;10.73;;;5.10;99.90;;;;;;5101207;28;20062;-78
2022/11/12 04:57:23;;;;;;;22.17;10.88;;;5.10;99.90;;;;;;5102693;28;20020;-77
2022/11/12 04:59:48;;;;;;;23.35;11.20;;;5.10;99.90;;;;;;5102942;28;20031;-75
2022/11/12 05:02:16;;;;;;;24.48;11.77;;;5.20;99.90;;;;;;5100540;28;20134;-76
2022/11/12 05:04:42;;;;;;;27.73;12.00;;;5.20;99.90;;;;;;5100989;28;20020;-77
2022/11/12 05:07:11;;;;;;;25.65;11.40;;;5.20;99.90;;;;;;5100867;28;20055;-77
2022/11/12 05:09:39;;;;;;;24.63;11.55;;;5.10;99.90;;;;;;5101704;28;20016;-78
2022/11/12 05:12:06;;;;;;;22.15;11.35;;;5.10;99.90;;;;;;5100511;28;20028;-77
2022/11/12 05:14:32;;;;;;;24.55;11.38;;;5.10;99.90;;;;;;5102319;28;20097;-76
2022/11/12 05:16:57;;;;;;;21.48;11.00;;;5.10;99.90;;;;;;5100763;28;20476;-76
2022/11/12 05:19:23;;;;;;;20.55;10.55;;;5.10;99.90;;;;;;5100906;28;20119;-76
2022/11/12 05:22:04;;;;;;;25.70;11.60;;;5.10;99.90;;;;;;5102095;28;20046;-78
2022/11/12 05:24:38;;;;;;;17.92;10.48;;;5.00;99.90;;;;;;5102203;28;20668;-76
2022/11/12 05:27:07;;;;;;;23.30;11.73;;;5.00;99.90;;;;;;5102383;28;20039;-74
2022/11/12 05:29:33;;;;;;;20.83;9.48;;;5.10;99.90;;;;;;5102522;28;20032;-75
2022/11/12 05:31:59;;;;;;;21.52;11.13;;;5.00;99.90;;;;;;5100550;28;20045;-75
2022/11/12 05:34:25;;;;;;;20.45;10.45;;;5.00;99.90;;;;;;5100476;28;20040;-76
2022/11/12 05:36:51;;;;;;;15.35;9.20;;;5.00;99.90;;;;;;5100452;28;20016;-76
2022/11/12 05:39:16;;;;;;;21.70;10.43;;;5.10;99.90;;;;;;5102559;28;20054;-77
2022/11/12 05:41:43;;;;;;;22.38;10.35;;;4.90;99.90;;;;;;5102149;28;20043;-72
2022/11/12 05:44:08;;;;;;;24.88;10.60;;;5.00;99.90;;;;;;5100986;28;20027;-77
2022/11/12 05:46:34;;;;;;;22.85;10.75;;;5.00;99.90;;;;;;5102113;28;20845;-77
2022/11/12 05:49:00;;;;;;;19.00;9.68;;;4.90;99.90;;;;;;5102437;28;20028;-76
2022/11/12 05:51:25;;;;;;;22.83;10.00;;;4.90;99.90;;;;;;5100568;28;20461;-77
2022/11/12 05:53:51;;;;;;;19.70;9.85;;;4.80;99.90;;;;;;5101988;28;20024;-77
2022/11/12 05:56:17;;;;;;;26.85;10.65;;;4.80;99.90;;;;;;5100741;28;20077;-76
2022/11/12 05:58:42;;;;;;;21.92;10.02;;;4.80;99.90;;;;;;5101965;28;20043;-76
2022/11/12 06:01:08;;;;;;;18.70;10.07;;;4.80;99.90;;;;;;5101602;28;20468;-76
2022/11/12 06:03:33;;;;;;;18.00;9.93;;;4.80;99.90;;;;;;5102746;28;20085;-75
2022/11/12 06:05:59;;;;;;;25.88;10.50;;;4.80;99.90;;;;;;5104297;28;20391;-78
2022/11/12 06:08:25;;;;;;;19.52;9.35;;;4.80;99.90;;;;;;5106074;28;20111;-77
2022/11/12 06:10:52;;;;;;;17.13;8.75;;;4.80;99.90;;;;;;5104097;28;20150;-78
2022/11/12 06:13:19;;;;;;;22.52;9.80;;;4.70;99.90;;;;;;5104478;28;20040;-76
2022/11/12 06:15:45;;;;;;;23.20;9.68;;;4.70;99.90;;;;;;5103279;28;20020;-76
2022/11/12 06:18:11;;;;;;;20.85;10.00;;;4.80;99.90;;;;;;5104078;28;20031;-78
2022/11/12 06:20:37;;;;;;;19.85;10.20;;;4.70;99.90;;;;;;5105258;28;20082;-77
2022/11/12 06:23:03;;;;;;;19.55;8.68;;;4.70;99.90;;;;;;5103775;28;20024;-75
2022/11/12 06:25:29;;;;;;;16.92;9.35;;;4.70;99.90;;;;;;5104098;28;20092;-75
2022/11/12 06:27:55;;;;;;;16.42;8.88;;;4.70;99.90;;;;;;5103999;28;20052;-76
2022/11/12 06:30:21;;;;;;;24.25;9.88;;;4.80;99.90;;;;;;5104297;28;20020;-77
2022/11/12 06:32:50;;;;;;;19.20;9.50;;;4.70;99.90;;;;;;5104005;28;20031;-76
2022/11/12 06:35:18;;;;;;;22.10;9.50;;;4.70;99.90;;;;;;5104066;28;20034;-76
2022/11/12 06:37:47;;;;;;;24.42;11.02;;;4.70;99.90;;;;;;5105504;28;20092;-74
2022/11/12 06:40:13;;;;;;;25.50;12.68;;;4.70;99.90;;;;;;5101566;28;20850;-73
2022/11/12 06:42:39;;;;;;;27.15;14.90;;;4.70;99.90;;;;;;5103009;28;20103;-74
2022/11/12 06:45:06;;;;;;;25.05;13.68;;;4.70;99.90;;;;;;5105241;28;20034;-75
2022/11/12 06:47:31;;;;;;;24.92;13.02;;;4.60;99.90;;;;;;5103863;28;20028;-76
2022/11/12 06:49:57;;;;;;;26.30;11.75;;;4.70;99.90;;;;;;5101890;28;20036;-75
2022/11/12 06:52:23;;;;;;;26.80;11.45;;;4.50;99.90;;;;;;5102320;28;20491;-76
2022/11/12 06:54:48;;;;;;;25.08;11.80;;;4.60;99.90;;;;;;5103669;28;20020;-75
2022/11/12 06:57:14;;;;;;;26.83;11.90;;;4.60;99.90;;;;;;5104474;28;20032;-74
2022/11/12 06:59:39;;;;;;;23.55;11.70;;;4.50;99.90;;;;;;5105236;28;20107;-75
2022/11/12 07:02:05;;;;;;;18.00;10.52;;;4.50;99.90;;;;;;5103412;28;20734;-77
2022/11/12 07:04:37;;;;;;;23.38;12.25;;;4.50;99.90;;;;;;5103357;28;20024;-79
2022/11/12 07:07:02;;;;;;;21.17;11.15;;;4.50;99.90;;;;;;5104622;28;20057;-76
2022/11/12 07:09:28;;;;;;;22.90;11.23;;;4.50;99.90;;;;;;5103382;28;20032;-76
2022/11/12 07:11:53;;;;;;;20.05;10.80;;;4.40;99.90;;;;;;5103402;28;20020;-77
2022/11/12 07:14:19;;;;;;;21.67;10.73;;;4.50;99.90;;;;;;5102015;28;20054;-79
2022/11/12 07:16:45;;;;;;;20.58;10.68;;;4.50;99.90;;;;;;5101953;28;21398;-78
2022/11/12 07:19:10;;;;;;;18.10;10.10;;;4.50;99.90;;;;;;5102588;28;20039;-78
2022/11/12 07:21:36;;;;;;;19.75;9.35;;;4.50;99.90;;;;;;5104201;28;20104;-77
2022/11/12 07:24:01;;;;;;;20.70;11.15;;;4.50;99.90;;;;;;5103024;28;20020;-77
2022/11/12 07:26:27;;;;;;;21.40;10.88;;;4.70;99.90;;;;;;5103272;28;20069;-80
2022/11/12 07:28:56;;;;;;;20.77;10.73;;;4.60;99.90;;;;;;5103088;28;20154;-80
2022/11/12 07:31:22;;;;;;;20.23;10.35;;;4.70;99.90;;;;;;5103140;28;20036;-80
2022/11/12 07:33:48;;;;;;;16.75;9.75;;;4.80;99.90;;;;;;5102355;28;20024;-80
2022/11/12 07:36:19;;;;;;;20.63;9.93;;;4.90;99.90;;;;;;5099615;28;20498;-81
2022/11/12 07:38:45;;;;;;;22.88;10.30;;;5.00;99.90;;;;;;5098056;28;20034;-81
2022/11/12 07:41:14;;;;;;;22.65;10.13;;;5.00;99.90;;;;;;5100892;28;20040;-80
2022/11/12 07:43:41;;;;;;;15.80;9.70;;;5.00;99.90;;;;;;5103580;28;20024;-79
2022/11/12 07:46:09;;;;;;;24.20;10.75;;;5.00;99.90;;;;;;5102075;28;20036;-78
2022/11/12 07:48:35;;;;;;;20.60;9.70;;;5.00;99.90;;;;;;5100815;28;20058;-79
2022/11/12 07:51:02;;;;;;;19.85;10.70;;;5.10;99.90;;;;;;5099815;28;20032;-81
2022/11/12 07:53:28;;;;;;;26.35;11.23;;;5.10;99.90;;;;;;5102011;28;20103;-77
2022/11/12 07:55:55;;;;;;;23.20;10.48;;;5.20;99.90;;;;;;5102081;28;20055;-78
2022/11/12 07:58:22;;;;;;;20.23;10.07;;;5.30;99.90;;;;;;5104110;28;20054;-78
2022/11/12 08:00:47;;;;;;;20.13;10.93;;;5.50;99.90;;;;;;5104085;28;20084;-79
2022/11/12 08:03:13;;;;;;;17.17;9.75;;;5.80;99.90;;;;;;5101400;28;20043;-79
2022/11/12 08:05:42;;;;;;;24.50;11.02;;;6.00;99.90;;;;;;5102469;28;20119;-78
2022/11/12 08:08:07;;;;;;;20.73;10.32;;;6.20;99.90;;;;;;5101984;28;20024;-76
2022/11/12 08:10:33;;;;;;;19.77;9.38;;;6.50;99.90;;;;;;5102210;28;20399;-75
2022/11/12 08:12:59;;;;;;;17.70;9.32;;;6.80;99.90;;;;;;5102046;28;20028;-76
2022/11/12 08:15:24;;;;;;;19.58;10.05;;;7.10;99.90;;;;;;5102173;28;20104;-76
2022/11/12 08:17:50;;;;;;;17.50;9.45;;;7.30;99.90;;;;;;5102029;28;20024;-77
2022/11/12 08:20:16;;;;;;;13.27;8.27;;;7.30;99.90;;;;;;5101828;28;20044;-78
2022/11/12 08:22:41;;;;;;;23.73;9.10;;;7.40;99.90;;;;;;5103727;28;20028;-78
2022/11/12 08:25:07;;;;;;;15.63;8.65;;;7.50;99.90;;;;;;5102445;28;20028;-78
2022/11/12 08:27:33;;;;;;;16.42;9.55;;;7.50;99.90;;;;;;5101896;28;20016;-77
2022/11/12 08:29:59;;;;;;;16.08;8.73;;;7.60;99.90;;;;;;5102032;28;20024;-78
2022/11/12 08:32:25;;;;;;;18.67;9.35;;;7.50;99.90;;;;;;5100793;28;20081;-79
2022/11/12 08:34:50;;;;;;;15.50;9.20;;;7.50;99.90;;;;;;5102888;28;20032;-77
2022/11/12 08:37:17;;;;;;;22.38;10.93;;;7.60;99.90;;;;;;5102464;28;20062;-78
2022/11/12 08:39:42;;;;;;;16.60;9.63;;;7.60;99.90;;;;;;5100409;28;21182;-78
2022/11/12 08:42:08;;;;;;;21.23;9.90;;;7.70;99.90;;;;;;5098907;28;20037;-79
2022/11/12 08:44:33;;;;;;;22.08;9.70;;;7.70;99.90;;;;;;5101063;28;20028;-79
2022/11/12 08:46:59;;;;;;;18.88;9.93;;;7.60;99.90;;;;;;5101566;28;20021;-79
2022/11/12 08:49:25;;;;;;;15.52;9.30;;;7.70;99.90;;;;;;5100280;28;20036;-78
2022/11/12 08:51:51;;;;;;;22.15;10.68;;;7.80;99.90;;;;;;5102905;28;20112;-79
2022/11/12 08:54:17;;;;;;;21.08;10.10;;;8.00;99.90;;;;;;5100291;28;20044;-78
2022/11/12 08:56:42;;;;;;;19.67;11.52;;;8.10;99.90;;;;;;5101593;28;20044;-79
2022/11/12 08:59:08;;;;;;;20.13;12.20;;;8.20;99.90;;;;;;5100923;28;20034;-78
2022/11/12 09:01:33;;;;;;;24.23;11.80;;;8.20;99.90;;;;;;5101037;28;20040;-79
2022/11/12 09:04:00;;;;;;;19.77;11.35;;;8.20;99.90;;;;;;5100303;28;20032;-79
2022/11/12 09:06:26;;;;;;;23.83;11.77;;;8.20;99.90;;;;;;5098853;28;20122;-79
2022/11/12 09:08:51;;;;;;;20.48;11.50;;;8.30;99.90;;;;;;5102534;28;20023;-79
2022/11/12 09:11:17;;;;;;;21.52;11.38;;;8.30;99.90;;;;;;5100426;28;20074;-81
2022/11/12 09:13:43;;;;;;;21.75;11.48;;;8.30;99.90;;;;;;5101586;28;20028;-79
2022/11/12 09:16:09;;;;;;;18.50;10.35;;;8.30;99.90;;;;;;5097165;28;20665;-78
2022/11/12 09:18:35;;;;;;;25.10;10.93;;;8.30;99.90;;;;;;5097907;28;20028;-79
2022/11/12 09:21:06;;;;;;;20.23;10.77;;;8.40;99.90;;;;;;5098340;28;20143;-79
2022/11/12 09:23:34;;;;;;;20.30;11.70;;;8.40;99.90;;;;;;5098727;28;20036;-77
2022/11/12 09:26:00;;;;;;;21.75;12.15;;;8.60;99.90;;;;;;5095139;28;20684;-79
2022/11/12 09:28:26;;;;;;;21.33;10.95;;;8.60;99.90;;;;;;5096845;28;20020;-79
2022/11/12 09:30:53;;;;;;;20.35;11.70;;;8.70;99.90;;;;;;5100666;28;20040;-80
2022/11/12 09:33:23;;;;;;;23.30;11.90;;;8.80;99.90;;;;;;5099770;28;20036;-79
2022/11/12 09:35:49;;;;;;;25.08;12.10;;;8.80;99.90;;;;;;5097105;28;20099;-81
2022/11/12 09:38:16;;;;;;;22.20;12.18;;;8.80;99.90;;;;;;5104826;28;20101;-79
2022/11/12 09:40:52;;;;;;;24.20;11.10;;;8.90;99.90;;;;;;5103696;28;20131;-78
2022/11/12 09:43:40;;;;;;;21.25;11.70;;;9.00;99.90;;;;;;5103357;28;20061;-78
2022/11/12 09:46:16;;;;;;;21.20;11.70;;;9.10;99.90;;;;;;5099217;28;20048;-78
2022/11/12 09:48:48;;;;;;;21.65;12.07;;;9.20;99.90;;;;;;5103489;28;20032;-80
2022/11/12 09:51:34;;;;;;;23.13;12.50;;;9.20;99.90;;;;;;5103813;28;20020;-78
2022/11/12 09:54:29;;;;;;;23.27;12.00;;;9.30;99.90;;;;;;5102283;28;20042;-77
2022/11/12 09:56:55;;;;;;;20.38;11.65;;;9.40;99.90;;;;;;5106194;28;20028;-79
2022/11/12 09:59:25;;;;;;;20.27;11.35;;;9.50;99.90;;;;;;5105159;28;20031;-78
2022/11/12 10:01:53;;;;;;;19.15;11.73;;;9.60;99.90;;;;;;5103465;28;20032;-77
2022/11/12 10:04:50;;;;;;;20.65;11.38;;;9.70;99.90;;;;;;5103362;28;20016;-78
2022/11/12 10:07:34;;;;;;;19.10;11.20;;;9.80;99.90;;;;;;5104562;28;20024;-79
2022/11/12 10:10:12;;;;;;;23.35;12.02;;;9.90;99.90;;;;;;5104309;28;20032;-79
2022/11/12 10:13:09;;;;;;;25.42;13.43;;;10.10;99.90;;;;;;5103628;28;20032;-77
2022/11/12 10:18:52;;;;;;;24.00;12.93;;;10.40;99.90;;;;;;5105714;28;20039;-77
2022/11/12 10:21:45;;;;;;;23.95;12.38;;;10.50;99.90;;;;;;5102513;28;20116;-78
2022/11/12 10:24:11;;;;;;;22.88;11.88;;;10.60;99.90;;;;;;5103397;28;20066;-78
2022/11/12 10:26:38;;;;;;;28.02;12.82;;;10.70;99.90;;;;;;5104386;28;20391;-75
2022/11/12 10:29:10;;;;;;;31.48;13.35;;;10.90;99.90;;;;;;5103426;28;20024;-76
2022/11/12 10:31:36;;;;;;;21.73;11.75;;;11.10;99.90;;;;;;5103280;28;20082;-77
2022/11/12 10:34:14;;;;;;;22.92;11.57;;;11.20;99.90;;;;;;5102025;28;20043;-76
2022/11/12 10:36:52;;;;;;;29.92;13.15;;;11.30;99.90;;;;;;5100633;28;20831;-75
2022/11/12 10:39:33;;;;;;;31.48;12.63;;;11.40;99.90;;;;;;5105215;28;20122;-77
2022/11/12 10:42:20;;;;;;;27.08;13.05;;;11.50;99.90;;;;;;5103211;28;20071;-78
2022/11/12 10:44:46;;;;;;;32.50;12.88;;;11.50;99.90;;;;;;5101630;28;20028;-78
2022/11/12 10:47:41;;;;;;;22.70;12.27;;;11.50;99.90;;;;;;5102521;28;20053;-78
2022/11/12 10:50:15;;;;;;;25.92;12.93;;;11.60;99.90;;;;;;5099220;28;20059;-77
2022/11/12 10:52:55;;;;;;;24.30;12.77;;;11.80;99.90;;;;;;5103889;28;20023;-78
2022/11/12 10:55:27;;;;;;;24.65;12.25;;;12.00;99.90;;;;;;5101822;28;20129;-77
2022/11/12 10:58:13;;;;;;;26.67;13.73;;;12.30;99.90;;;;;;5103324;28;20032;-77
2022/11/12 11:01:13;;;;;;;25.17;12.48;;;12.70;99.90;;;;;;5104626;28;20040;-73
2022/11/12 11:03:54;;;;;;;24.50;12.32;;;13.00;99.90;;;;;;5104684;28;20035;-75
2022/11/12 11:06:24;;;;;;;22.27;12.57;;;13.00;99.90;;;;;;5105091;28;20032;-78
2022/11/12 11:08:52;;;;;;;27.67;13.57;;;12.90;99.90;;;;;;5104468;28;20020;-78
2022/11/12 11:11:31;;;;;;;28.23;13.05;;;13.00;99.90;;;;;;5101911;28;20790;-77
2022/11/12 11:14:23;;;;;;;27.90;13.60;;;13.00;99.90;;;;;;5103035;28;20083;-76
2022/11/12 11:16:53;;;;;;;27.30;13.10;;;12.70;99.90;;;;;;5096922;28;20391;-76
2022/11/12 11:19:19;;;;;;;23.15;12.32;;;12.50;99.90;;;;;;5099908;28;20111;-77
2022/11/12 11:22:01;;;;;;;26.85;12.63;;;12.30;99.90;;;;;;5102338;28;20090;-78
2022/11/12 11:24:35;;;;;;;26.27;13.30;;;12.10;99.90;;;;;;5101058;28;20035;-76
2022/11/12 11:27:15;;;;;;;25.15;12.55;;;12.00;99.90;;;;;;5096547;28;20028;-75
2022/11/12 11:29:51;;;;;;;24.10;13.70;;;11.90;99.90;;;;;;5098155;28;20070;-76
2022/11/12 11:32:32;;;;;;;28.65;13.80;;;11.80;99.90;;;;;;5099665;28;20024;-75
2022/11/12 11:35:25;;;;;;;29.27;13.48;;;11.70;99.90;;;;;;5100203;28;20039;-77
2022/11/12 11:38:27;;;;;;;29.83;13.38;;;11.60;99.90;;;;;;5103359;28;20024;-76
2022/11/12 11:41:29;;;;;;;27.05;13.02;;;11.50;99.90;;;;;;5091628;28;20040;-75
2022/11/12 11:44:16;;;;;;;25.52;12.82;;;11.50;99.90;;;;;;5098963;28;20112;-75
2022/11/12 11:46:57;;;;;;;30.80;13.05;;;11.50;99.90;;;;;;5099144;28;20024;-75
2022/11/12 11:49:28;;;;;;;26.38;13.65;;;11.60;99.90;;;;;;5103619;28;20020;-76
2022/11/12 11:52:28;;;;;;;28.48;13.25;;;11.60;99.90;;;;;;5102136;28;20046;-78
2022/11/12 11:55:18;;;;;;;28.77;14.00;;;11.60;99.90;;;;;;5103014;28;20024;-77
2022/11/12 11:58:40;;;;;;;26.38;13.50;;;11.70;99.90;;;;;;5093217;28;20713;-76
2022/11/12 12:01:22;;;;;;;21.50;11.95;;;11.70;99.90;;;;;;5050869;28;20089;-76
2022/11/12 12:04:06;;;;;;;28.65;13.05;;;11.90;99.90;;;;;;5091716;28;20380;-77
2022/11/12 12:06:43;;;;;;;23.33;12.20;;;12.00;99.90;;;;;;5100247;28;20036;-77
2022/11/12 12:09:12;;;;;;;30.83;13.60;;;12.10;99.90;;;;;;5102890;28;20020;-76
2022/11/12 12:11:48;;;;;;;23.42;12.10;;;12.20;99.90;;;;;;5097601;28;20024;-78
2022/11/12 12:14:40;;;;;;;21.63;11.93;;;12.30;99.90;;;;;;5099662;28;20039;-76
2022/11/12 12:17:16;;;;;;;26.20;11.90;;;12.30;99.90;;;;;;5099545;28;20479;-76
2022/11/12 12:20:12;;;;;;;25.02;12.40;;;12.40;99.90;;;;;;5100497;28;20050;-76
2022/11/12 12:22:48;;;;;;;27.80;11.93;;;12.40;99.90;;;;;;5102284;28;20035;-76
2022/11/12 12:25:36;;;;;;;23.83;11.43;;;12.40;99.90;;;;;;5101893;28;20024;-76
2022/11/12 12:28:09;;;;;;;25.23;12.10;;;12.50;99.90;;;;;;5099242;28;20112;-76
2022/11/12 12:30:39;;;;;;;22.85;11.65;;;12.40;99.90;;;;;;5098829;28;20680;-77
2022/11/12 12:33:29;;;;;;;21.05;11.02;;;12.50;99.90;;;;;;5099393;28;20055;-77
2022/11/12 12:36:08;;;;;;;19.88;11.27;;;12.40;99.90;;;;;;5101067;28;20024;-77
2022/11/12 12:39:01;;;;;;;24.70;12.60;;;12.40;99.90;;;;;;5102165;28;20039;-78
2022/11/12 12:41:51;;;;;;;24.00;11.93;;;12.50;99.90;;;;;;5099336;28;20028;-75
2022/11/12 12:44:17;;;;;;;19.23;11.02;;;12.50;99.90;;;;;;5098959;28;20020;-77
2022/11/12 12:46:48;;;;;;;23.52;11.55;;;12.40;99.90;;;;;;5099303;28;20031;-74
2022/11/12 12:49:18;;;;;;;22.35;11.52;;;12.50;99.90;;;;;;5100500;28;20020;-76
2022/11/12 12:51:44;;;;;;;22.27;11.70;;;12.50;99.90;;;;;;5101560;28;20027;-74
2022/11/12 12:54:34;;;;;;;21.42;12.38;;;12.50;99.90;;;;;;5102079;28;20024;-77
2022/11/12 12:57:02;;;;;;;19.20;10.82;;;12.60;99.90;;;;;;5101763;28;20031;-77
2022/11/12 12:59:27;;;;;;;22.52;12.05;;;12.60;99.90;;;;;;5102981;28;20495;-76
2022/11/12 13:02:01;;;;;;;30.77;12.98;;;12.70;99.90;;;;;;5107002;28;20032;-75
2022/11/12 13:04:48;;;;;;;22.73;11.82;;;12.80;99.90;;;;;;5103132;28;20024;-77
2022/11/12 13:07:14;;;;;;;25.58;12.02;;;12.80;99.90;;;;;;5100945;28;20028;-77
2022/11/12 13:09:40;;;;;;;22.73;12.20;;;12.90;99.90;;;;;;5101928;28;20028;-76